createdAt,value
2019-05-02T00:01:05.572Z,7.00
2019-05-02T00:03:41.242Z,8.05
2019-05-02T00:06:09.498Z,7.78
2019-05-02T00:08:40.384Z,7.80
2019-05-02T00:11:12.245Z,8.60
2019-05-02T00:13:43.317Z,7.90
2019-05-02T00:16:15.386Z,7.58
2019-05-02T00:18:46.881Z,8.25
2019-05-02T00:21:17.255Z,7.95
2019-05-02T00:23:47.937Z,8.05
2019-05-02T00:26:18.138Z,8.35
2019-05-02T00:28:49.859Z,9.48
2019-05-02T00:31:21.687Z,9.83
2019-05-02T00:33:52.313Z,9.85
2019-05-02T00:36:22.935Z,10.98
2019-05-02T00:38:54.632Z,10.03
2019-05-02T00:41:26.073Z,12.10
2019-05-02T00:43:56.296Z,13.05
2019-05-02T00:46:30.262Z,12.30
2019-05-02T00:49:01.798Z,14.55
2019-05-02T00:51:31.625Z,15.48
2019-05-02T00:54:01.927Z,16.40
2019-05-02T00:56:32.160Z,16.95
2019-05-02T00:59:07.367Z,17.50
2019-05-02T01:01:39.604Z,17.05
2019-05-02T01:04:14.657Z,18.07
2019-05-02T01:06:49.380Z,17.75
2019-05-02T01:09:17.628Z,17.75
2019-05-02T01:11:48.256Z,17.62
2019-05-02T01:14:19.813Z,17.67
2019-05-02T01:16:54.331Z,16.90
2019-05-02T01:19:23.329Z,17.15
2019-05-02T01:21:54.626Z,17.05
2019-05-02T01:24:25.271Z,16.62
2019-05-02T01:27:04.567Z,16.93
2019-05-02T01:29:36.667Z,16.45
2019-05-02T01:32:17.678Z,16.27
2019-05-02T01:34:54.439Z,16.62
2019-05-02T01:37:29.501Z,17.32
2019-05-02T01:39:59.832Z,16.57
2019-05-02T01:42:39.668Z,17.52
2019-05-02T01:45:02.210Z,17.45
2019-05-02T01:47:34.062Z,17.23
2019-05-02T01:50:06.710Z,18.02
2019-05-02T01:52:37.304Z,18.52
2019-05-02T01:55:08.896Z,18.57
2019-05-02T01:57:39.974Z,18.07
2019-05-02T02:00:13.450Z,18.40
2019-05-02T02:02:44.100Z,18.60
2019-05-02T02:05:14.950Z,16.73
2019-05-02T02:07:45.598Z,16.45
2019-05-02T02:10:19.851Z,16.55
2019-05-02T02:13:02.862Z,16.75
2019-05-02T02:15:25.194Z,17.57
2019-05-02T02:17:53.404Z,17.40
2019-05-02T02:20:28.282Z,18.15
2019-05-02T02:23:03.432Z,17.82
2019-05-02T02:25:52.208Z,17.40
2019-05-02T02:28:22.807Z,17.92
2019-05-02T02:30:58.057Z,18.80
2019-05-02T02:33:25.427Z,18.82
2019-05-02T02:35:56.272Z,17.42
2019-05-02T02:38:33.626Z,18.82
2019-05-02T02:40:59.879Z,18.17
2019-05-02T02:43:34.870Z,18.62
2019-05-02T02:46:10.384Z,19.37
2019-05-02T02:48:42.675Z,19.50
2019-05-02T02:51:22.239Z,17.87
2019-05-02T02:53:45.176Z,18.77
2019-05-02T02:56:15.832Z,18.65
2019-05-02T02:58:48.092Z,19.75
2019-05-02T03:01:27.458Z,18.92
2019-05-02T03:03:51.062Z,19.27
2019-05-02T03:06:21.734Z,19.25
2019-05-02T03:08:52.375Z,20.82
2019-05-02T03:11:25.585Z,19.92
2019-05-02T03:14:07.561Z,21.65
2019-05-02T03:16:46.051Z,22.32
2019-05-02T03:19:07.144Z,23.75
2019-05-02T03:21:40.029Z,24.30
2019-05-02T03:24:10.579Z,23.50
2019-05-02T03:26:40.834Z,24.47
2019-05-02T03:29:12.278Z,24.02
2019-05-02T03:31:42.989Z,25.80
2019-05-02T03:34:13.696Z,24.63
2019-05-02T03:36:44.498Z,26.10
2019-05-02T03:39:17.420Z,25.55
2019-05-02T03:41:47.277Z,26.87
2019-05-02T03:44:25.138Z,26.25
2019-05-02T03:46:54.166Z,26.50
2019-05-02T03:49:21.923Z,24.72
2019-05-02T03:51:56.075Z,26.23
2019-05-02T03:54:24.826Z,26.23
2019-05-02T03:56:55.495Z,26.62
2019-05-02T03:59:37.716Z,26.75
2019-05-02T04:01:59.445Z,26.75
2019-05-02T04:04:30.491Z,29.57
2019-05-02T04:07:01.540Z,31.62
2019-05-02T04:09:42.462Z,31.25
2019-05-02T04:12:18.531Z,32.45
2019-05-02T04:14:41.050Z,33.08
2019-05-02T04:17:12.206Z,33.63
2019-05-02T04:19:42.876Z,33.13
2019-05-02T04:22:15.227Z,32.70
2019-05-02T04:24:54.194Z,29.92
2019-05-02T04:27:19.799Z,29.50
2019-05-02T04:29:51.271Z,28.60
2019-05-02T04:32:21.479Z,30.02
2019-05-02T04:34:55.074Z,28.83
2019-05-02T04:37:24.188Z,29.23
2019-05-02T04:39:59.180Z,29.52
2019-05-02T04:42:29.132Z,27.15
2019-05-02T04:45:14.058Z,29.07
2019-05-02T04:47:30.781Z,27.15
2019-05-02T04:50:07.647Z,27.35
2019-05-02T04:52:38.498Z,27.52
2019-05-02T04:55:19.924Z,26.70
2019-05-02T04:57:47.087Z,26.52
2019-05-02T05:00:13.693Z,25.88
2019-05-02T05:02:43.932Z,24.43
2019-05-02T05:05:17.194Z,23.85
2019-05-02T05:07:49.304Z,22.75
2019-05-02T05:10:18.732Z,21.45
2019-05-02T05:12:49.311Z,20.10
2019-05-02T05:15:35.936Z,20.52
2019-05-02T05:17:51.534Z,19.37
2019-05-02T05:20:22.105Z,20.17
2019-05-02T05:22:52.414Z,20.12
2019-05-02T05:25:42.150Z,18.92
2019-05-02T05:28:12.363Z,18.67
2019-05-02T05:30:45.438Z,19.45
2019-05-02T05:33:14.875Z,19.10
2019-05-02T05:35:48.772Z,19.10
2019-05-02T05:38:18.256Z,18.02
2019-05-02T05:40:50.310Z,18.95
2019-05-02T05:43:21.286Z,18.20
2019-05-02T05:45:56.418Z,17.02
2019-05-02T05:48:24.276Z,17.42
2019-05-02T05:50:54.598Z,17.65
2019-05-02T05:53:24.811Z,17.25
2019-05-02T05:55:58.989Z,17.60
2019-05-02T05:58:28.942Z,18.07
2019-05-02T06:00:59.976Z,17.67
2019-05-02T06:03:34.092Z,17.37
2019-05-02T06:06:02.705Z,17.85
2019-05-02T06:08:33.337Z,17.62
2019-05-02T06:11:03.689Z,18.10
2019-05-02T06:13:34.383Z,17.32
2019-05-02T06:16:05.013Z,17.80
2019-05-02T06:18:36.516Z,19.02
2019-05-02T06:21:08.840Z,16.90
2019-05-02T06:23:41.551Z,17.65
2019-05-02T06:26:13.478Z,18.62
2019-05-02T06:28:44.368Z,17.40
2019-05-02T06:31:17.067Z,17.32
2019-05-02T06:33:47.051Z,16.20
2019-05-02T06:36:17.610Z,17.85
2019-05-02T06:38:52.267Z,17.00
2019-05-02T06:41:22.183Z,16.90
2019-05-02T06:43:52.892Z,17.73
2019-05-02T06:46:27.477Z,16.70
2019-05-02T06:48:55.554Z,16.82
2019-05-02T06:51:25.902Z,15.90
2019-05-02T06:53:57.116Z,17.12
2019-05-02T06:56:27.774Z,17.00
2019-05-02T06:59:01.106Z,16.95
2019-05-02T07:01:32.515Z,16.97
2019-05-02T07:04:04.351Z,17.90
2019-05-02T07:06:55.923Z,17.20
2019-05-02T07:09:07.827Z,17.07
2019-05-02T07:11:40.628Z,16.05
2019-05-02T07:14:13.540Z,15.05
2019-05-02T07:16:44.428Z,14.80
2019-05-02T07:19:16.675Z,14.18
2019-05-02T07:21:47.411Z,14.35
2019-05-02T07:24:17.714Z,13.80
2019-05-02T07:26:52.057Z,12.70
2019-05-02T07:29:21.805Z,12.15
2019-05-02T07:31:53.631Z,12.95
2019-05-02T07:34:24.898Z,11.80
2019-05-02T07:36:56.454Z,11.78
2019-05-02T07:39:27.085Z,11.05
2019-05-02T07:42:00.656Z,11.25
2019-05-02T07:44:32.566Z,10.45
2019-05-02T07:47:02.959Z,9.75
2019-05-02T07:49:34.581Z,10.38
2019-05-02T07:52:05.138Z,10.20
2019-05-02T07:54:35.353Z,10.43
2019-05-02T07:57:06.083Z,9.40
2019-05-02T07:59:36.722Z,11.12
2019-05-02T08:02:07.226Z,9.40
2019-05-02T08:04:37.751Z,10.05
2019-05-02T08:07:08.133Z,9.53
2019-05-02T08:09:42.125Z,9.53
2019-05-02T08:12:13.275Z,8.95
2019-05-02T08:14:44.039Z,8.80
2019-05-02T08:17:17.220Z,8.98
2019-05-02T08:19:47.040Z,9.00
2019-05-02T08:22:19.013Z,9.40
2019-05-02T08:24:49.521Z,9.70
2019-05-02T08:27:22.871Z,8.93
2019-05-02T08:29:53.475Z,9.10
2019-05-02T08:32:24.098Z,9.73
2019-05-02T08:34:54.387Z,9.35
2019-05-02T08:37:25.400Z,9.43
2019-05-02T08:39:56.050Z,9.25
2019-05-02T08:42:27.657Z,9.90
2019-05-02T08:45:00.999Z,9.15
2019-05-02T08:47:31.052Z,9.58
2019-05-02T08:50:01.770Z,9.20
2019-05-02T08:52:36.875Z,9.08
2019-05-02T08:55:09.744Z,9.93
2019-05-02T09:00:11.666Z,8.78
2019-05-02T09:02:42.402Z,9.25
2019-05-02T09:05:13.069Z,9.40
2019-05-02T09:07:43.711Z,7.92
2019-05-02T09:10:15.816Z,8.70
2019-05-02T09:12:46.157Z,8.63
2019-05-02T09:15:17.418Z,8.00
2019-05-02T09:17:53.042Z,9.33
2019-05-02T09:20:21.474Z,9.00
2019-05-02T09:22:55.925Z,9.28
2019-05-02T09:25:24.947Z,8.90
2019-05-02T09:27:55.256Z,9.45
2019-05-02T09:30:26.047Z,9.70
2019-05-02T09:32:57.043Z,10.10
2019-05-02T09:35:28.695Z,10.82
2019-05-02T09:37:58.937Z,10.45
2019-05-02T09:40:29.156Z,11.10
2019-05-02T09:43:02.116Z,10.95
2019-05-02T09:45:37.315Z,11.50
2019-05-02T09:48:08.170Z,11.57
2019-05-02T09:50:39.411Z,11.43
2019-05-02T09:53:13.259Z,10.78
2019-05-02T09:55:49.575Z,10.80
2019-05-02T09:58:19.685Z,10.38
2019-05-02T10:00:52.490Z,10.48
2019-05-02T10:03:23.180Z,9.43
2019-05-02T10:05:54.092Z,10.55
2019-05-02T10:08:24.419Z,9.80
2019-05-02T10:11:04.503Z,9.53
2019-05-02T10:13:34.729Z,10.03
2019-05-02T10:16:05.225Z,10.55
2019-05-02T10:18:35.458Z,11.33
2019-05-02T10:21:07.801Z,11.48
2019-05-02T10:23:38.281Z,11.85
2019-05-02T10:26:12.973Z,12.45
2019-05-02T10:28:49.308Z,12.90
2019-05-02T10:31:18.130Z,12.53
2019-05-02T10:33:48.423Z,13.10
2019-05-02T10:36:19.912Z,12.03
2019-05-02T10:38:59.173Z,12.13
2019-05-02T10:41:39.188Z,12.43
2019-05-02T10:44:14.233Z,11.85
2019-05-02T10:46:52.186Z,12.15
2019-05-02T10:49:24.069Z,12.58
2019-05-02T10:51:57.594Z,12.90
2019-05-02T10:54:33.690Z,12.53
2019-05-02T10:57:02.297Z,12.23
2019-05-02T10:59:33.059Z,12.15
2019-05-02T11:02:05.146Z,11.75
2019-05-02T11:04:37.433Z,11.22
2019-05-02T11:07:07.738Z,11.93
2019-05-02T11:09:38.242Z,10.88
2019-05-02T11:12:11.855Z,11.90
2019-05-02T11:14:52.915Z,12.30
2019-05-02T11:17:36.893Z,11.10
2019-05-02T11:20:09.191Z,11.10
2019-05-02T11:22:39.592Z,10.50
2019-05-02T11:25:12.088Z,10.58
2019-05-02T11:27:42.458Z,12.23
2019-05-02T11:30:16.892Z,11.18
2019-05-02T11:32:46.142Z,11.47
2019-05-02T11:35:16.384Z,11.85
2019-05-02T11:37:46.999Z,10.70
2019-05-02T11:40:17.359Z,10.68
2019-05-02T11:42:47.965Z,11.08
2019-05-02T11:45:18.341Z,10.68
2019-05-02T11:47:49.037Z,10.75
2019-05-02T11:50:19.704Z,10.78
2019-05-02T11:52:52.291Z,9.95
2019-05-02T11:55:24.705Z,10.78
2019-05-02T11:57:54.537Z,10.35
2019-05-02T12:00:25.201Z,10.50
2019-05-02T12:03:12.744Z,10.13
2019-05-02T12:05:44.014Z,11.10
2019-05-02T12:08:14.500Z,10.45
2019-05-02T12:10:45.131Z,10.93
2019-05-02T12:13:16.142Z,11.48
2019-05-02T12:15:47.011Z,10.90
2019-05-02T12:18:20.369Z,10.75
2019-05-02T12:20:53.545Z,9.70
2019-05-02T12:23:24.199Z,10.30
2019-05-02T12:25:55.124Z,10.50
2019-05-02T12:28:26.030Z,9.30
2019-05-02T12:30:56.635Z,11.00
2019-05-02T12:33:28.515Z,9.75
2019-05-02T12:35:59.578Z,9.40
2019-05-02T12:38:32.340Z,9.90
2019-05-02T12:41:02.680Z,9.70
2019-05-02T12:43:33.132Z,9.75
2019-05-02T12:46:04.223Z,8.70
2019-05-02T12:48:34.611Z,9.15
2019-05-02T12:51:04.989Z,9.83
2019-05-02T12:53:35.244Z,9.28
2019-05-02T12:56:06.081Z,9.83
2019-05-02T12:58:36.393Z,9.73
2019-05-02T13:01:06.610Z,9.83
2019-05-02T13:03:56.729Z,10.28
2019-05-02T13:06:27.291Z,11.20
2019-05-02T13:08:57.803Z,11.55
2019-05-02T13:11:46.101Z,12.58
2019-05-02T13:14:19.917Z,12.03
2019-05-02T13:16:53.633Z,11.97
2019-05-02T13:19:36.805Z,11.63
2019-05-02T13:21:59.700Z,12.00
2019-05-02T13:24:34.880Z,12.55
2019-05-02T13:27:07.615Z,12.58
2019-05-02T13:29:38.605Z,12.45
2019-05-02T13:32:18.687Z,12.43
2019-05-02T13:34:56.880Z,11.60
2019-05-02T13:37:27.215Z,11.85
2019-05-02T13:40:02.695Z,9.60
2019-05-02T13:42:35.112Z,9.75
2019-05-02T13:45:15.593Z,9.65
2019-05-02T13:47:46.262Z,10.68
2019-05-02T13:50:17.014Z,9.25
2019-05-02T13:52:53.148Z,9.03
2019-05-02T13:55:20.805Z,8.80
2019-05-02T13:57:52.836Z,9.13
2019-05-02T14:00:34.653Z,9.00
2019-05-02T14:03:05.200Z,9.18
2019-05-02T14:05:42.180Z,9.98
2019-05-02T14:08:35.400Z,8.43
2019-05-02T14:11:08.564Z,9.58
2019-05-02T14:13:42.495Z,9.25
2019-05-02T14:16:12.352Z,9.30
2019-05-02T14:18:42.578Z,8.88
2019-05-02T14:21:13.162Z,9.90
2019-05-02T14:23:43.494Z,10.70
2019-05-02T14:26:26.919Z,10.25
2019-05-02T14:28:46.144Z,10.30
2019-05-02T14:31:16.798Z,10.88
2019-05-02T14:33:48.733Z,10.93
2019-05-02T14:36:19.360Z,11.88
2019-05-02T14:38:49.758Z,11.05
2019-05-02T14:41:22.194Z,11.40
2019-05-02T14:43:54.023Z,10.25
2019-05-02T14:46:34.305Z,10.82
2019-05-02T14:48:58.052Z,11.57
2019-05-02T14:51:28.629Z,11.80
2019-05-02T14:54:03.582Z,11.85
2019-05-02T14:56:48.716Z,12.15
2019-05-02T14:59:20.046Z,11.53
2019-05-02T15:01:52.873Z,12.75
2019-05-02T15:04:23.419Z,12.47
2019-05-02T15:06:54.519Z,12.18
2019-05-02T15:09:26.757Z,11.83
2019-05-02T15:12:02.926Z,11.70
2019-05-02T15:14:34.495Z,10.50
2019-05-02T15:17:07.654Z,11.15
2019-05-02T15:19:38.102Z,10.75
2019-05-02T15:22:09.049Z,10.88
2019-05-02T15:24:39.432Z,10.85
2019-05-02T15:27:13.344Z,11.57
2019-05-02T15:29:42.120Z,11.97
2019-05-02T15:32:14.948Z,11.22
2019-05-02T15:34:57.460Z,11.25
2019-05-02T15:37:28.660Z,11.60
2019-05-02T15:42:32.294Z,12.18
2019-05-02T15:45:05.604Z,12.05
2019-05-02T15:47:37.006Z,12.82
2019-05-02T15:50:08.033Z,12.37
2019-05-02T15:52:41.949Z,11.30
2019-05-02T15:55:12.542Z,10.60
2019-05-02T15:57:45.884Z,12.15
2019-05-02T16:00:23.008Z,11.10
2019-05-02T16:02:51.713Z,10.50
2019-05-02T16:05:23.850Z,11.43
2019-05-02T16:08:05.280Z,11.08
2019-05-02T16:10:26.765Z,10.90
2019-05-02T16:12:59.548Z,11.65
2019-05-02T16:15:29.610Z,12.13
2019-05-02T16:18:01.929Z,11.28
2019-05-02T16:20:47.271Z,11.88
2019-05-02T16:23:19.493Z,12.93
2019-05-02T16:25:48.730Z,11.57
2019-05-02T16:28:19.033Z,12.23
2019-05-02T16:30:52.585Z,12.50
2019-05-02T16:33:22.955Z,13.18
2019-05-02T16:35:54.633Z,12.10
2019-05-02T16:38:26.851Z,11.88
2019-05-02T16:41:01.689Z,11.38
2019-05-02T16:43:32.842Z,10.35
2019-05-02T16:46:06.623Z,11.03
2019-05-02T16:48:37.608Z,10.70
2019-05-02T16:51:27.663Z,10.65
2019-05-02T16:53:42.641Z,12.40
2019-05-02T16:56:14.250Z,13.95
2019-05-02T16:58:47.061Z,11.50
2019-05-02T17:01:26.620Z,11.53
2019-05-02T17:03:50.140Z,11.80
2019-05-02T17:06:25.840Z,10.00
2019-05-02T17:08:58.421Z,10.53
2019-05-02T17:11:34.497Z,7.85
2019-05-02T17:14:07.017Z,8.25
2019-05-02T17:16:35.077Z,7.20
2019-05-02T17:19:05.860Z,7.28
2019-05-02T17:21:52.435Z,7.15
2019-05-02T17:24:08.512Z,6.42
2019-05-02T17:26:39.274Z,6.37
2019-05-02T17:29:11.842Z,6.17
2019-05-02T17:31:42.682Z,5.80
2019-05-02T17:34:14.886Z,5.55
2019-05-02T17:36:45.831Z,5.78
2019-05-02T17:39:18.754Z,5.78
2019-05-02T17:41:48.924Z,5.83
2019-05-02T17:44:22.130Z,6.12
2019-05-02T17:46:58.203Z,5.72
2019-05-02T17:49:34.890Z,5.45
2019-05-02T17:52:19.118Z,7.60
2019-05-02T17:54:46.894Z,5.42
2019-05-02T17:57:17.097Z,5.55
2019-05-02T17:59:47.399Z,5.87
2019-05-02T18:02:17.970Z,6.45
2019-05-02T18:04:52.041Z,6.45
2019-05-02T18:07:25.036Z,6.40
2019-05-02T18:09:52.727Z,6.30
2019-05-02T18:12:22.925Z,6.30
2019-05-02T18:14:58.963Z,6.03
2019-05-02T18:17:31.783Z,6.17
2019-05-02T18:20:05.830Z,6.42
2019-05-02T18:22:34.932Z,6.80
2019-05-02T18:25:07.635Z,6.50
2019-05-02T18:27:38.210Z,6.42
2019-05-02T18:30:09.789Z,7.08
2019-05-02T18:32:42.017Z,7.22
2019-05-02T18:35:13.157Z,6.92
2019-05-02T18:37:46.724Z,6.72
2019-05-02T18:40:20.142Z,7.53
2019-05-02T18:42:48.138Z,7.90
2019-05-02T18:45:28.475Z,7.17
2019-05-02T18:48:02.170Z,7.40
2019-05-02T18:50:36.755Z,8.25
2019-05-02T18:55:38.085Z,7.55
2019-05-02T18:58:09.226Z,7.15
2019-05-02T19:00:42.055Z,8.00
2019-05-02T19:03:17.083Z,7.72
2019-05-02T19:05:46.693Z,7.95
2019-05-02T19:08:30.623Z,7.95
2019-05-02T19:11:05.422Z,8.33
2019-05-02T19:13:24.692Z,8.35
2019-05-02T19:15:54.980Z,7.80
2019-05-02T19:18:25.554Z,8.00
2019-05-02T19:20:59.354Z,7.70
2019-05-02T19:23:31.875Z,8.85
2019-05-02T19:26:10.037Z,8.08
2019-05-02T19:28:42.987Z,7.42
2019-05-02T19:31:14.700Z,8.63
2019-05-02T19:33:44.998Z,8.30
2019-05-02T19:36:16.359Z,8.93
2019-05-02T19:38:47.504Z,8.40
2019-05-02T19:41:17.794Z,8.73
2019-05-02T19:43:49.752Z,9.65
2019-05-02T19:46:24.474Z,8.88
2019-05-02T19:48:55.256Z,8.55
2019-05-02T19:51:28.097Z,9.28
2019-05-02T19:53:59.614Z,9.93
2019-05-02T19:56:33.376Z,9.00
2019-05-02T19:59:03.959Z,9.40
2019-05-02T20:01:36.160Z,9.25
2019-05-02T20:04:09.490Z,9.80
2019-05-02T20:06:41.884Z,8.38
2019-05-02T20:09:12.444Z,8.83
2019-05-02T20:11:42.733Z,8.70
2019-05-02T20:14:13.810Z,9.15
2019-05-02T20:16:49.219Z,9.50
2019-05-02T20:19:23.123Z,9.53
2019-05-02T20:22:01.654Z,10.32
2019-05-02T20:24:33.610Z,10.82
2019-05-02T20:27:04.933Z,11.12
2019-05-02T20:29:35.215Z,13.30
2019-05-02T20:32:05.804Z,12.13
2019-05-02T20:34:37.084Z,12.00
2019-05-02T20:37:07.554Z,11.53
2019-05-02T20:39:37.879Z,11.38
2019-05-02T20:42:08.509Z,11.08
2019-05-02T20:44:39.218Z,11.10
2019-05-02T20:47:13.459Z,11.53
2019-05-02T20:49:47.865Z,11.35
2019-05-02T20:52:18.562Z,11.20
2019-05-02T20:54:49.674Z,11.50
2019-05-02T20:57:19.955Z,10.50
2019-05-02T20:59:52.496Z,10.70
2019-05-02T21:02:22.675Z,10.65
2019-05-02T21:04:52.918Z,10.20
2019-05-02T21:07:34.313Z,10.53
2019-05-02T21:10:13.927Z,10.40
2019-05-02T21:12:44.260Z,10.48
2019-05-02T21:15:14.603Z,9.65
2019-05-02T21:17:45.419Z,9.73
2019-05-02T21:20:16.102Z,9.83
2019-05-02T21:22:46.857Z,10.58
2019-05-02T21:25:17.645Z,11.15
2019-05-02T21:27:48.696Z,10.75
2019-05-02T21:30:22.015Z,12.65
2019-05-02T21:32:52.247Z,16.60
2019-05-02T21:35:22.472Z,11.12
2019-05-02T21:37:53.032Z,9.90
2019-05-02T21:40:25.773Z,10.70
2019-05-02T21:42:56.156Z,11.15
2019-05-02T21:45:26.471Z,11.60
2019-05-02T21:47:57.132Z,10.60
2019-05-02T21:50:33.710Z,11.12
2019-05-02T21:53:17.906Z,11.90
2019-05-02T21:55:56.209Z,11.40
2019-05-02T21:58:26.512Z,11.65
2019-05-02T22:01:12.956Z,12.40
2019-05-02T22:03:43.150Z,14.25
2019-05-02T22:06:13.761Z,13.83
2019-05-02T22:08:44.460Z,14.18
2019-05-02T22:11:14.934Z,12.95
2019-05-02T22:13:45.576Z,13.68
2019-05-02T22:16:16.271Z,14.20
2019-05-02T22:18:47.607Z,14.20
2019-05-02T22:21:18.198Z,13.70
2019-05-02T22:23:48.908Z,13.45
2019-05-02T22:26:19.227Z,13.68
2019-05-02T22:28:49.901Z,13.68
2019-05-02T22:31:22.741Z,13.58
2019-05-02T22:33:53.376Z,13.15
2019-05-02T22:36:23.891Z,12.90
2019-05-02T22:38:56.138Z,13.20
2019-05-02T22:41:26.824Z,12.53
2019-05-02T22:43:57.420Z,13.30
2019-05-02T22:46:43.131Z,12.45
2019-05-02T22:49:16.475Z,12.30
2019-05-02T22:51:46.844Z,12.93
2019-05-02T22:54:26.601Z,13.28
2019-05-02T22:56:49.408Z,13.78
2019-05-02T22:59:19.782Z,12.68
2019-05-02T23:01:52.811Z,12.93
2019-05-02T23:04:23.663Z,12.93
2019-05-02T23:06:54.527Z,12.05
2019-05-02T23:09:25.326Z,12.15
2019-05-02T23:11:56.023Z,13.48
2019-05-02T23:14:26.508Z,13.05
2019-05-02T23:16:56.725Z,13.38
2019-05-02T23:19:26.960Z,12.82
2019-05-02T23:21:57.509Z,13.08
2019-05-02T23:24:37.001Z,13.98
2019-05-02T23:27:03.359Z,12.65
2019-05-02T23:29:33.993Z,13.65
2019-05-02T23:32:04.633Z,13.40
2019-05-02T23:34:34.937Z,13.32
2019-05-02T23:37:07.276Z,13.83
2019-05-02T23:39:37.914Z,13.48
2019-05-02T23:42:08.194Z,13.10
2019-05-02T23:44:38.898Z,13.13
2019-05-02T23:47:09.275Z,13.62
2019-05-02T23:49:39.829Z,14.47
2019-05-02T23:52:11.756Z,14.33
2019-05-02T23:54:50.084Z,13.25
2019-05-02T23:57:14.500Z,13.20
2019-05-02T23:59:45.707Z,13.22
